sensor_id;sensor_type;location;lat;lon;timestamp;P1;durP1;ratioP1;P2;durP2;ratioP2
80272;SDS011;69574;45.328;9.598;2023-08-01T00:00:12;22.23;;;18.58;;
80272;SDS011;69574;45.328;9.598;2023-08-01T00:02:38;21.20;;;18.63;;
80272;SDS011;69574;45.328;9.598;2023-08-01T00:05:04;20.23;;;18.15;;
80272;SDS011;69574;45.328;9.598;2023-08-01T00:07:30;21.85;;;19.55;;
80272;SDS011;69574;45.328;9.598;2023-08-01T00:09:57;20.25;;;18.13;;
80272;SDS011;69574;45.328;9.598;2023-08-01T00:12:23;22.20;;;18.85;;
80272;SDS011;69574;45.328;9.598;2023-08-01T00:14:49;20.33;;;18.02;;
80272;SDS011;69574;45.328;9.598;2023-08-01T00:17:15;21.02;;;18.92;;
80272;SDS011;69574;45.328;9.598;2023-08-01T00:19:41;20.02;;;18.00;;
80272;SDS011;69574;45.328;9.598;2023-08-01T00:22:06;21.15;;;19.05;;
80272;SDS011;69574;45.328;9.598;2023-08-01T00:24:32;19.50;;;17.42;;
80272;SDS011;69574;45.328;9.598;2023-08-01T00:26:59;18.45;;;16.60;;
80272;SDS011;69574;45.328;9.598;2023-08-01T00:29:25;20.45;;;18.25;;
80272;SDS011;69574;45.328;9.598;2023-08-01T00:31:50;20.63;;;18.50;;
80272;SDS011;69574;45.328;9.598;2023-08-01T00:34:16;19.95;;;17.95;;
80272;SDS011;69574;45.328;9.598;2023-08-01T00:36:42;20.90;;;18.80;;
80272;SDS011;69574;45.328;9.598;2023-08-01T00:39:07;20.58;;;18.48;;
80272;SDS011;69574;45.328;9.598;2023-08-01T00:41:33;20.90;;;18.80;;
80272;SDS011;69574;45.328;9.598;2023-08-01T00:44:00;20.20;;;18.08;;
80272;SDS011;69574;45.328;9.598;2023-08-01T00:46:25;19.45;;;17.42;;
80272;SDS011;69574;45.328;9.598;2023-08-01T00:48:51;19.75;;;17.77;;
80272;SDS011;69574;45.328;9.598;2023-08-01T00:51:18;19.58;;;17.52;;
80272;SDS011;69574;45.328;9.598;2023-08-01T00:53:44;19.10;;;17.30;;
80272;SDS011;69574;45.328;9.598;2023-08-01T00:56:11;18.80;;;17.00;;
80272;SDS011;69574;45.328;9.598;2023-08-01T00:58:37;18.60;;;16.80;;
80272;SDS011;69574;45.328;9.598;2023-08-01T01:01:04;18.98;;;16.77;;
80272;SDS011;69574;45.328;9.598;2023-08-01T01:03:30;17.30;;;15.55;;
80272;SDS011;69574;45.328;9.598;2023-08-01T01:05:57;17.85;;;16.02;;
80272;SDS011;69574;45.328;9.598;2023-08-01T01:08:26;18.73;;;16.75;;
80272;SDS011;69574;45.328;9.598;2023-08-01T01:10:52;19.15;;;17.20;;
80272;SDS011;69574;45.328;9.598;2023-08-01T01:13:17;16.88;;;15.20;;
80272;SDS011;69574;45.328;9.598;2023-08-01T01:15:43;17.52;;;15.75;;
80272;SDS011;69574;45.328;9.598;2023-08-01T01:18:10;17.38;;;15.63;;
80272;SDS011;69574;45.328;9.598;2023-08-01T01:20:37;18.00;;;16.15;;
80272;SDS011;69574;45.328;9.598;2023-08-01T01:23:03;18.77;;;16.73;;
80272;SDS011;69574;45.328;9.598;2023-08-01T01:27:54;16.87;;;15.20;;
80272;SDS011;69574;45.328;9.598;2023-08-01T01:30:20;17.67;;;15.88;;
80272;SDS011;69574;45.328;9.598;2023-08-01T01:32:46;17.65;;;15.77;;
80272;SDS011;69574;45.328;9.598;2023-08-01T01:35:12;18.77;;;16.83;;
80272;SDS011;69574;45.328;9.598;2023-08-01T01:37:39;18.15;;;16.33;;
80272;SDS011;69574;45.328;9.598;2023-08-01T01:40:05;18.55;;;16.13;;
80272;SDS011;69574;45.328;9.598;2023-08-01T01:42:31;19.08;;;16.90;;
80272;SDS011;69574;45.328;9.598;2023-08-01T01:44:57;18.48;;;16.58;;
80272;SDS011;69574;45.328;9.598;2023-08-01T01:47:22;18.17;;;16.38;;
80272;SDS011;69574;45.328;9.598;2023-08-01T01:49:48;18.40;;;16.50;;
80272;SDS011;69574;45.328;9.598;2023-08-01T01:52:14;19.33;;;17.17;;
80272;SDS011;69574;45.328;9.598;2023-08-01T01:54:41;18.88;;;16.98;;
80272;SDS011;69574;45.328;9.598;2023-08-01T01:57:07;18.48;;;16.58;;
80272;SDS011;69574;45.328;9.598;2023-08-01T01:59:32;18.08;;;16.38;;
80272;SDS011;69574;45.328;9.598;2023-08-01T02:01:58;18.80;;;16.90;;
80272;SDS011;69574;45.328;9.598;2023-08-01T02:04:25;19.30;;;17.38;;
80272;SDS011;69574;45.328;9.598;2023-08-01T02:06:50;18.33;;;16.42;;
80272;SDS011;69574;45.328;9.598;2023-08-01T02:09:18;18.92;;;16.92;;
80272;SDS011;69574;45.328;9.598;2023-08-01T02:11:45;18.65;;;16.85;;
80272;SDS011;69574;45.328;9.598;2023-08-01T02:14:11;19.75;;;17.77;;
80272;SDS011;69574;45.328;9.598;2023-08-01T02:16:37;19.95;;;17.92;;
80272;SDS011;69574;45.328;9.598;2023-08-01T02:19:02;17.73;;;16.02;;
80272;SDS011;69574;45.328;9.598;2023-08-01T02:21:28;18.75;;;16.92;;
80272;SDS011;69574;45.328;9.598;2023-08-01T02:23:54;18.58;;;16.75;;
80272;SDS011;69574;45.328;9.598;2023-08-01T02:26:19;19.50;;;17.50;;
80272;SDS011;69574;45.328;9.598;2023-08-01T02:28:49;18.20;;;16.40;;
80272;SDS011;69574;45.328;9.598;2023-08-01T02:31:15;19.40;;;17.35;;
80272;SDS011;69574;45.328;9.598;2023-08-01T02:33:40;18.90;;;16.90;;
80272;SDS011;69574;45.328;9.598;2023-08-01T02:36:06;18.17;;;16.38;;
80272;SDS011;69574;45.328;9.598;2023-08-01T02:38:32;19.80;;;17.75;;
80272;SDS011;69574;45.328;9.598;2023-08-01T02:40:57;20.45;;;18.20;;
80272;SDS011;69574;45.328;9.598;2023-08-01T02:43:23;20.13;;;18.02;;
80272;SDS011;69574;45.328;9.598;2023-08-01T02:45:50;19.73;;;17.83;;
80272;SDS011;69574;45.328;9.598;2023-08-01T02:48:16;20.45;;;18.45;;
80272;SDS011;69574;45.328;9.598;2023-08-01T02:50:41;21.58;;;19.23;;
80272;SDS011;69574;45.328;9.598;2023-08-01T02:53:07;20.70;;;18.50;;
80272;SDS011;69574;45.328;9.598;2023-08-01T02:55:33;20.35;;;18.35;;
80272;SDS011;69574;45.328;9.598;2023-08-01T02:57:58;19.63;;;17.65;;
80272;SDS011;69574;45.328;9.598;2023-08-01T03:00:24;19.27;;;17.33;;
80272;SDS011;69574;45.328;9.598;2023-08-01T03:02:52;19.35;;;17.35;;
80272;SDS011;69574;45.328;9.598;2023-08-01T03:05:17;20.73;;;18.20;;
80272;SDS011;69574;45.328;9.598;2023-08-01T03:07:43;17.92;;;16.02;;
80272;SDS011;69574;45.328;9.598;2023-08-01T03:10:09;19.25;;;17.27;;
80272;SDS011;69574;45.328;9.598;2023-08-01T03:12:37;18.88;;;16.63;;
80272;SDS011;69574;45.328;9.598;2023-08-01T03:15:03;40.00;;;20.90;;
80272;SDS011;69574;45.328;9.598;2023-08-01T03:17:29;16.13;;;14.48;;
80272;SDS011;69574;45.328;9.598;2023-08-01T03:19:56;18.48;;;14.25;;
80272;SDS011;69574;45.328;9.598;2023-08-01T03:22:21;14.52;;;13.02;;
80272;SDS011;69574;45.328;9.598;2023-08-01T03:24:47;25.27;;;13.38;;
80272;SDS011;69574;45.328;9.598;2023-08-01T03:27:13;14.10;;;11.90;;
80272;SDS011;69574;45.328;9.598;2023-08-01T03:29:39;14.27;;;12.75;;
80272;SDS011;69574;45.328;9.598;2023-08-01T03:32:04;13.63;;;12.23;;
80272;SDS011;69574;45.328;9.598;2023-08-01T03:34:30;13.05;;;11.73;;
80272;SDS011;69574;45.328;9.598;2023-08-01T03:36:57;13.55;;;11.70;;
80272;SDS011;69574;45.328;9.598;2023-08-01T03:39:23;14.20;;;12.65;;
80272;SDS011;69574;45.328;9.598;2023-08-01T03:41:48;14.98;;;12.38;;
80272;SDS011;69574;45.328;9.598;2023-08-01T03:44:14;13.35;;;11.95;;
80272;SDS011;69574;45.328;9.598;2023-08-01T03:46:41;12.40;;;11.10;;
80272;SDS011;69574;45.328;9.598;2023-08-01T03:49:06;13.90;;;11.50;;
80272;SDS011;69574;45.328;9.598;2023-08-01T03:51:32;13.70;;;11.45;;
80272;SDS011;69574;45.328;9.598;2023-08-01T03:53:59;13.43;;;11.90;;
80272;SDS011;69574;45.328;9.598;2023-08-01T03:56:24;14.95;;;11.18;;
80272;SDS011;69574;45.328;9.598;2023-08-01T03:58:50;13.40;;;11.23;;
80272;SDS011;69574;45.328;9.598;2023-08-01T04:01:16;13.27;;;11.30;;
80272;SDS011;69574;45.328;9.598;2023-08-01T04:03:41;13.13;;;11.73;;
80272;SDS011;69574;45.328;9.598;2023-08-01T04:06:07;13.15;;;11.75;;
80272;SDS011;69574;45.328;9.598;2023-08-01T04:11:00;14.80;;;11.93;;
80272;SDS011;69574;45.328;9.598;2023-08-01T04:13:25;14.50;;;13.02;;
80272;SDS011;69574;45.328;9.598;2023-08-01T04:15:51;14.05;;;11.93;;
80272;SDS011;69574;45.328;9.598;2023-08-01T04:18:16;13.45;;;11.95;;
80272;SDS011;69574;45.328;9.598;2023-08-01T04:20:42;14.25;;;12.80;;
80272;SDS011;69574;45.328;9.598;2023-08-01T04:23:07;14.05;;;12.55;;
80272;SDS011;69574;45.328;9.598;2023-08-01T04:25:33;14.05;;;12.20;;
80272;SDS011;69574;45.328;9.598;2023-08-01T04:28:00;15.43;;;13.05;;
80272;SDS011;69574;45.328;9.598;2023-08-01T04:30:25;15.65;;;12.50;;
80272;SDS011;69574;45.328;9.598;2023-08-01T04:32:51;14.52;;;13.13;;
80272;SDS011;69574;45.328;9.598;2023-08-01T04:35:17;16.75;;;14.18;;
80272;SDS011;69574;45.328;9.598;2023-08-01T04:37:42;15.18;;;13.57;;
80272;SDS011;69574;45.328;9.598;2023-08-01T04:40:08;15.30;;;13.80;;
80272;SDS011;69574;45.328;9.598;2023-08-01T04:42:34;15.88;;;13.30;;
80272;SDS011;69574;45.328;9.598;2023-08-01T04:45:01;16.35;;;14.05;;
80272;SDS011;69574;45.328;9.598;2023-08-01T04:47:26;14.77;;;13.20;;
80272;SDS011;69574;45.328;9.598;2023-08-01T04:49:52;16.17;;;14.52;;
80272;SDS011;69574;45.328;9.598;2023-08-01T04:52:17;15.07;;;13.38;;
80272;SDS011;69574;45.328;9.598;2023-08-01T04:54:43;15.27;;;13.70;;
80272;SDS011;69574;45.328;9.598;2023-08-01T04:57:09;15.68;;;14.07;;
80272;SDS011;69574;45.328;9.598;2023-08-01T04:59:34;14.77;;;13.35;;
80272;SDS011;69574;45.328;9.598;2023-08-01T05:02:01;17.15;;;13.70;;
80272;SDS011;69574;45.328;9.598;2023-08-01T05:04:27;15.43;;;13.82;;
80272;SDS011;69574;45.328;9.598;2023-08-01T05:06:52;15.25;;;12.75;;
80272;SDS011;69574;45.328;9.598;2023-08-01T05:09:18;14.20;;;12.77;;
80272;SDS011;69574;45.328;9.598;2023-08-01T05:11:44;15.88;;;13.15;;
80272;SDS011;69574;45.328;9.598;2023-08-01T05:14:09;16.55;;;13.13;;
80272;SDS011;69574;45.328;9.598;2023-08-01T05:16:35;14.98;;;12.57;;
80272;SDS011;69574;45.328;9.598;2023-08-01T05:19:02;13.60;;;10.80;;
80272;SDS011;69574;45.328;9.598;2023-08-01T05:21:27;14.52;;;11.68;;
80272;SDS011;69574;45.328;9.598;2023-08-01T05:23:53;13.50;;;11.75;;
80272;SDS011;69574;45.328;9.598;2023-08-01T05:26:18;11.88;;;10.70;;
80272;SDS011;69574;45.328;9.598;2023-08-01T05:28:44;12.95;;;11.55;;
80272;SDS011;69574;45.328;9.598;2023-08-01T05:31:09;15.20;;;11.38;;
80272;SDS011;69574;45.328;9.598;2023-08-01T05:33:35;17.23;;;11.50;;
80272;SDS011;69574;45.328;9.598;2023-08-01T05:36:02;18.58;;;11.68;;
80272;SDS011;69574;45.328;9.598;2023-08-01T05:38:28;13.30;;;10.82;;
80272;SDS011;69574;45.328;9.598;2023-08-01T05:40:53;28.77;;;11.00;;
80272;SDS011;69574;45.328;9.598;2023-08-01T05:43:19;11.65;;;10.55;;
80272;SDS011;69574;45.328;9.598;2023-08-01T05:45:44;24.20;;;11.52;;
80272;SDS011;69574;45.328;9.598;2023-08-01T05:48:10;12.60;;;11.20;;
80272;SDS011;69574;45.328;9.598;2023-08-01T05:50:35;13.35;;;10.75;;
80272;SDS011;69574;45.328;9.598;2023-08-01T05:53:03;14.15;;;10.60;;
80272;SDS011;69574;45.328;9.598;2023-08-01T05:55:28;23.48;;;10.18;;
80272;SDS011;69574;45.328;9.598;2023-08-01T05:57:54;10.50;;;8.88;;
80272;SDS011;69574;45.328;9.598;2023-08-01T06:00:20;10.65;;;8.27;;
80272;SDS011;69574;45.328;9.598;2023-08-01T06:02:48;11.80;;;7.55;;
80272;SDS011;69574;45.328;9.598;2023-08-01T06:05:14;10.32;;;7.28;;
80272;SDS011;69574;45.328;9.598;2023-08-01T06:07:40;8.48;;;6.70;;
80272;SDS011;69574;45.328;9.598;2023-08-01T06:10:07;8.25;;;7.00;;
80272;SDS011;69574;45.328;9.598;2023-08-01T06:12:33;12.25;;;7.10;;
80272;SDS011;69574;45.328;9.598;2023-08-01T06:14:58;10.52;;;6.88;;
80272;SDS011;69574;45.328;9.598;2023-08-01T06:17:24;8.77;;;7.35;;
80272;SDS011;69574;45.328;9.598;2023-08-01T06:19:50;8.65;;;7.07;;
80272;SDS011;69574;45.328;9.598;2023-08-01T06:22:16;9.20;;;6.75;;
80272;SDS011;69574;45.328;9.598;2023-08-01T06:24:42;9.00;;;7.28;;
80272;SDS011;69574;45.328;9.598;2023-08-01T06:27:09;8.27;;;7.25;;
80272;SDS011;69574;45.328;9.598;2023-08-01T06:29:34;11.07;;;7.13;;
80272;SDS011;69574;45.328;9.598;2023-08-01T06:32:00;9.63;;;7.75;;
80272;SDS011;69574;45.328;9.598;2023-08-01T06:34:27;10.27;;;7.20;;
80272;SDS011;69574;45.328;9.598;2023-08-01T06:36:52;11.77;;;7.90;;
80272;SDS011;69574;45.328;9.598;2023-08-01T06:39:21;12.32;;;8.35;;
80272;SDS011;69574;45.328;9.598;2023-08-01T06:41:46;12.55;;;8.70;;
80272;SDS011;69574;45.328;9.598;2023-08-01T06:44:13;14.02;;;9.32;;
80272;SDS011;69574;45.328;9.598;2023-08-01T06:46:39;10.93;;;9.32;;
80272;SDS011;69574;45.328;9.598;2023-08-01T06:49:07;10.68;;;8.88;;
80272;SDS011;69574;45.328;9.598;2023-08-01T06:51:34;11.70;;;9.90;;
80272;SDS011;69574;45.328;9.598;2023-08-01T06:53:59;10.98;;;9.65;;
80272;SDS011;69574;45.328;9.598;2023-08-01T06:56:25;12.63;;;9.45;;
80272;SDS011;69574;45.328;9.598;2023-08-01T06:58:50;15.23;;;9.98;;
80272;SDS011;69574;45.328;9.598;2023-08-01T07:01:17;12.73;;;9.30;;
80272;SDS011;69574;45.328;9.598;2023-08-01T07:03:43;11.68;;;9.10;;
80272;SDS011;69574;45.328;9.598;2023-08-01T07:06:08;12.32;;;10.18;;
80272;SDS011;69574;45.328;9.598;2023-08-01T07:08:35;11.27;;;9.80;;
80272;SDS011;69574;45.328;9.598;2023-08-01T07:11:00;13.13;;;9.60;;
80272;SDS011;69574;45.328;9.598;2023-08-01T07:13:27;10.43;;;9.30;;
80272;SDS011;69574;45.328;9.598;2023-08-01T07:15:53;12.80;;;9.60;;
80272;SDS011;69574;45.328;9.598;2023-08-01T07:18:20;13.90;;;9.93;;
80272;SDS011;69574;45.328;9.598;2023-08-01T07:20:45;12.90;;;9.77;;
80272;SDS011;69574;45.328;9.598;2023-08-01T07:23:11;12.98;;;10.25;;
80272;SDS011;69574;45.328;9.598;2023-08-01T07:25:37;13.15;;;10.15;;
80272;SDS011;69574;45.328;9.598;2023-08-01T07:28:02;14.60;;;10.35;;
80272;SDS011;69574;45.328;9.598;2023-08-01T07:30:28;12.70;;;10.45;;
80272;SDS011;69574;45.328;9.598;2023-08-01T07:32:53;14.73;;;11.02;;
80272;SDS011;69574;45.328;9.598;2023-08-01T07:35:20;12.07;;;10.65;;
80272;SDS011;69574;45.328;9.598;2023-08-01T07:37:46;13.73;;;10.02;;
80272;SDS011;69574;45.328;9.598;2023-08-01T07:42:37;10.83;;;9.73;;
80272;SDS011;69574;45.328;9.598;2023-08-01T07:45:03;12.27;;;10.98;;
80272;SDS011;69574;45.328;9.598;2023-08-01T07:47:29;14.45;;;10.38;;
80272;SDS011;69574;45.328;9.598;2023-08-01T07:49:55;13.73;;;10.30;;
80272;SDS011;69574;45.328;9.598;2023-08-01T07:52:22;12.82;;;10.88;;
80272;SDS011;69574;45.328;9.598;2023-08-01T07:54:47;13.43;;;11.20;;
80272;SDS011;69574;45.328;9.598;2023-08-01T07:57:13;14.65;;;11.63;;
80272;SDS011;69574;45.328;9.598;2023-08-01T07:59:38;13.02;;;11.63;;
80272;SDS011;69574;45.328;9.598;2023-08-01T08:02:04;15.45;;;11.88;;
80272;SDS011;69574;45.328;9.598;2023-08-01T08:04:30;12.77;;;11.43;;
80272;SDS011;69574;45.328;9.598;2023-08-01T08:06:56;13.02;;;11.55;;
80272;SDS011;69574;45.328;9.598;2023-08-01T08:09:26;13.15;;;11.18;;
80272;SDS011;69574;45.328;9.598;2023-08-01T08:11:52;13.23;;;11.82;;
80272;SDS011;69574;45.328;9.598;2023-08-01T08:14:18;14.32;;;12.57;;
80272;SDS011;69574;45.328;9.598;2023-08-01T08:16:45;14.40;;;12.05;;
80272;SDS011;69574;45.328;9.598;2023-08-01T08:19:11;13.48;;;11.82;;
80272;SDS011;69574;45.328;9.598;2023-08-01T08:21:37;14.65;;;12.65;;
80272;SDS011;69574;45.328;9.598;2023-08-01T08:24:02;15.77;;;11.98;;
80272;SDS011;69574;45.328;9.598;2023-08-01T08:26:29;16.25;;;12.38;;
80272;SDS011;69574;45.328;9.598;2023-08-01T08:28:56;13.60;;;12.02;;
80272;SDS011;69574;45.328;9.598;2023-08-01T08:33:47;14.53;;;11.63;;
80272;SDS011;69574;45.328;9.598;2023-08-01T08:36:13;14.50;;;12.52;;
80272;SDS011;69574;45.328;9.598;2023-08-01T08:38:39;13.85;;;12.32;;
80272;SDS011;69574;45.328;9.598;2023-08-01T08:41:07;14.15;;;12.35;;
80272;SDS011;69574;45.328;9.598;2023-08-01T08:43:35;13.73;;;12.25;;
80272;SDS011;69574;45.328;9.598;2023-08-01T08:46:01;15.05;;;12.77;;
80272;SDS011;69574;45.328;9.598;2023-08-01T08:48:30;21.30;;;13.93;;
80272;SDS011;69574;45.328;9.598;2023-08-01T08:50:56;16.38;;;12.43;;
80272;SDS011;69574;45.328;9.598;2023-08-01T08:53:23;15.57;;;12.82;;
80272;SDS011;69574;45.328;9.598;2023-08-01T08:55:50;14.82;;;11.20;;
80272;SDS011;69574;45.328;9.598;2023-08-01T08:58:15;14.38;;;11.23;;
80272;SDS011;69574;45.328;9.598;2023-08-01T09:00:42;14.80;;;12.63;;
80272;SDS011;69574;45.328;9.598;2023-08-01T09:03:08;16.40;;;14.20;;
80272;SDS011;69574;45.328;9.598;2023-08-01T09:05:34;16.00;;;12.88;;
80272;SDS011;69574;45.328;9.598;2023-08-01T09:08:04;27.90;;;16.90;;
80272;SDS011;69574;45.328;9.598;2023-08-01T09:10:30;26.80;;;18.48;;
80272;SDS011;69574;45.328;9.598;2023-08-01T09:12:56;16.52;;;14.80;;
80272;SDS011;69574;45.328;9.598;2023-08-01T09:15:22;19.02;;;15.00;;
80272;SDS011;69574;45.328;9.598;2023-08-01T09:20:14;23.10;;;13.57;;
80272;SDS011;69574;45.328;9.598;2023-08-01T09:22:43;19.23;;;13.68;;
80272;SDS011;69574;45.328;9.598;2023-08-01T09:25:10;17.73;;;12.48;;
80272;SDS011;69574;45.328;9.598;2023-08-01T09:27:35;17.00;;;13.45;;
80272;SDS011;69574;45.328;9.598;2023-08-01T09:30:10;20.08;;;15.15;;
80272;SDS011;69574;45.328;9.598;2023-08-01T09:32:37;16.67;;;12.73;;
80272;SDS011;69574;45.328;9.598;2023-08-01T09:35:02;16.75;;;12.43;;
80272;SDS011;69574;45.328;9.598;2023-08-01T09:37:38;15.60;;;10.65;;
80272;SDS011;69574;45.328;9.598;2023-08-01T09:40:05;15.18;;;10.80;;
80272;SDS011;69574;45.328;9.598;2023-08-01T09:42:37;26.38;;;11.18;;
80272;SDS011;69574;45.328;9.598;2023-08-01T09:45:02;13.43;;;11.10;;
80272;SDS011;69574;45.328;9.598;2023-08-01T09:47:35;14.73;;;11.32;;
80272;SDS011;69574;45.328;9.598;2023-08-01T09:50:01;20.67;;;13.48;;
80272;SDS011;69574;45.328;9.598;2023-08-01T09:52:27;28.75;;;15.50;;
80272;SDS011;69574;45.328;9.598;2023-08-01T09:54:54;18.42;;;11.23;;
80272;SDS011;69574;45.328;9.598;2023-08-01T09:57:19;14.43;;;8.30;;
80272;SDS011;69574;45.328;9.598;2023-08-01T09:59:46;15.45;;;8.18;;
80272;SDS011;69574;45.328;9.598;2023-08-01T10:02:13;11.07;;;7.95;;
80272;SDS011;69574;45.328;9.598;2023-08-01T10:04:40;22.23;;;12.07;;
80272;SDS011;69574;45.328;9.598;2023-08-01T10:07:07;31.45;;;25.02;;
80272;SDS011;69574;45.328;9.598;2023-08-01T10:09:33;23.05;;;16.92;;
80272;SDS011;69574;45.328;9.598;2023-08-01T10:12:02;19.33;;;9.23;;
80272;SDS011;69574;45.328;9.598;2023-08-01T10:14:28;11.13;;;8.20;;
80272;SDS011;69574;45.328;9.598;2023-08-01T10:16:54;13.30;;;8.07;;
80272;SDS011;69574;45.328;9.598;2023-08-01T10:19:20;13.48;;;8.55;;
80272;SDS011;69574;45.328;9.598;2023-08-01T10:21:47;10.35;;;7.43;;
80272;SDS011;69574;45.328;9.598;2023-08-01T10:26:38;10.65;;;7.90;;
80272;SDS011;69574;45.328;9.598;2023-08-01T10:29:05;9.02;;;7.60;;
80272;SDS011;69574;45.328;9.598;2023-08-01T10:31:31;11.07;;;7.03;;
80272;SDS011;69574;45.328;9.598;2023-08-01T10:34:03;10.15;;;7.70;;
80272;SDS011;69574;45.328;9.598;2023-08-01T10:36:29;12.95;;;8.40;;
80272;SDS011;69574;45.328;9.598;2023-08-01T10:38:57;10.82;;;7.72;;
80272;SDS011;69574;45.328;9.598;2023-08-01T10:41:25;10.48;;;6.70;;
80272;SDS011;69574;45.328;9.598;2023-08-01T10:43:51;8.82;;;6.50;;
80272;SDS011;69574;45.328;9.598;2023-08-01T10:46:18;10.13;;;6.68;;
80272;SDS011;69574;45.328;9.598;2023-08-01T10:48:49;10.23;;;6.93;;
80272;SDS011;69574;45.328;9.598;2023-08-01T10:51:15;12.82;;;8.13;;
80272;SDS011;69574;45.328;9.598;2023-08-01T10:53:41;11.52;;;7.97;;
80272;SDS011;69574;45.328;9.598;2023-08-01T10:56:07;13.30;;;8.18;;
80272;SDS011;69574;45.328;9.598;2023-08-01T10:58:33;16.13;;;8.52;;
80272;SDS011;69574;45.328;9.598;2023-08-01T11:00:59;12.68;;;8.02;;
80272;SDS011;69574;45.328;9.598;2023-08-01T11:03:34;13.98;;;8.07;;
80272;SDS011;69574;45.328;9.598;2023-08-01T11:06:00;13.77;;;8.15;;
80272;SDS011;69574;45.328;9.598;2023-08-01T11:08:33;13.15;;;8.63;;
80272;SDS011;69574;45.328;9.598;2023-08-01T11:10:59;14.82;;;8.88;;
80272;SDS011;69574;45.328;9.598;2023-08-01T11:13:24;18.05;;;9.13;;
80272;SDS011;69574;45.328;9.598;2023-08-01T11:15:50;14.20;;;7.88;;
80272;SDS011;69574;45.328;9.598;2023-08-01T11:18:15;12.77;;;7.57;;
80272;SDS011;69574;45.328;9.598;2023-08-01T11:20:42;8.18;;;6.60;;
80272;SDS011;69574;45.328;9.598;2023-08-01T11:23:08;8.63;;;7.00;;
80272;SDS011;69574;45.328;9.598;2023-08-01T11:25:34;10.68;;;6.90;;
80272;SDS011;69574;45.328;9.598;2023-08-01T11:28:03;10.43;;;7.47;;
80272;SDS011;69574;45.328;9.598;2023-08-01T11:30:30;9.80;;;6.88;;
80272;SDS011;69574;45.328;9.598;2023-08-01T11:32:56;9.10;;;7.25;;
80272;SDS011;69574;45.328;9.598;2023-08-01T11:35:22;9.50;;;6.95;;
80272;SDS011;69574;45.328;9.598;2023-08-01T11:37:49;11.55;;;7.15;;
80272;SDS011;69574;45.328;9.598;2023-08-01T11:40:15;12.30;;;7.40;;
80272;SDS011;69574;45.328;9.598;2023-08-01T11:42:40;9.82;;;7.30;;
80272;SDS011;69574;45.328;9.598;2023-08-01T11:45:10;10.23;;;7.30;;
80272;SDS011;69574;45.328;9.598;2023-08-01T11:47:36;14.45;;;7.43;;
80272;SDS011;69574;45.328;9.598;2023-08-01T11:50:02;10.45;;;7.18;;
80272;SDS011;69574;45.328;9.598;2023-08-01T11:52:28;11.48;;;7.35;;
80272;SDS011;69574;45.328;9.598;2023-08-01T11:57:21;14.65;;;6.95;;
80272;SDS011;69574;45.328;9.598;2023-08-01T11:59:47;10.35;;;7.40;;
80272;SDS011;69574;45.328;9.598;2023-08-01T12:02:20;11.40;;;7.68;;
80272;SDS011;69574;45.328;9.598;2023-08-01T12:04:45;11.35;;;7.47;;
80272;SDS011;69574;45.328;9.598;2023-08-01T12:07:12;13.65;;;7.97;;
80272;SDS011;69574;45.328;9.598;2023-08-01T12:09:43;11.05;;;8.02;;
80272;SDS011;69574;45.328;9.598;2023-08-01T12:12:09;10.73;;;7.78;;
80272;SDS011;69574;45.328;9.598;2023-08-01T12:14:40;11.98;;;8.70;;
80272;SDS011;69574;45.328;9.598;2023-08-01T12:17:06;14.00;;;8.82;;
80272;SDS011;69574;45.328;9.598;2023-08-01T12:19:32;13.43;;;8.20;;
80272;SDS011;69574;45.328;9.598;2023-08-01T12:21:59;11.52;;;7.55;;
80272;SDS011;69574;45.328;9.598;2023-08-01T12:24:24;17.67;;;7.97;;
80272;SDS011;69574;45.328;9.598;2023-08-01T12:29:15;11.87;;;8.27;;
80272;SDS011;69574;45.328;9.598;2023-08-01T12:31:42;18.35;;;8.00;;
80272;SDS011;69574;45.328;9.598;2023-08-01T12:34:08;22.52;;;8.73;;
80272;SDS011;69574;45.328;9.598;2023-08-01T12:36:33;11.48;;;8.05;;
80272;SDS011;69574;45.328;9.598;2023-08-01T12:38:59;10.77;;;7.47;;
80272;SDS011;69574;45.328;9.598;2023-08-01T12:41:25;13.13;;;8.30;;
80272;SDS011;69574;45.328;9.598;2023-08-01T12:43:50;13.65;;;8.13;;
80272;SDS011;69574;45.328;9.598;2023-08-01T12:46:16;12.20;;;7.47;;
80272;SDS011;69574;45.328;9.598;2023-08-01T12:48:43;14.18;;;7.95;;
80272;SDS011;69574;45.328;9.598;2023-08-01T12:51:08;9.88;;;7.60;;
80272;SDS011;69574;45.328;9.598;2023-08-01T12:53:34;15.27;;;7.90;;
80272;SDS011;69574;45.328;9.598;2023-08-01T12:55:59;16.08;;;8.25;;
80272;SDS011;69574;45.328;9.598;2023-08-01T12:58:25;12.18;;;8.02;;
80272;SDS011;69574;45.328;9.598;2023-08-01T13:03:16;14.20;;;8.07;;
80272;SDS011;69574;45.328;9.598;2023-08-01T13:05:43;11.40;;;7.75;;
80272;SDS011;69574;45.328;9.598;2023-08-01T13:08:08;10.70;;;8.13;;
80272;SDS011;69574;45.328;9.598;2023-08-01T13:12:59;10.13;;;7.10;;
80272;SDS011;69574;45.328;9.598;2023-08-01T13:17:50;9.83;;;7.17;;
80272;SDS011;69574;45.328;9.598;2023-08-01T13:22:43;10.50;;;8.07;;
80272;SDS011;69574;45.328;9.598;2023-08-01T13:25:08;11.65;;;7.95;;
80272;SDS011;69574;45.328;9.598;2023-08-01T13:29:59;18.77;;;8.53;;
80272;SDS011;69574;45.328;9.598;2023-08-01T13:32:25;9.52;;;7.28;;
80272;SDS011;69574;45.328;9.598;2023-08-01T13:37:15;9.77;;;6.77;;
80272;SDS011;69574;45.328;9.598;2023-08-01T13:42:08;14.25;;;9.20;;
80272;SDS011;69574;45.328;9.598;2023-08-01T13:44:33;12.48;;;8.35;;
80272;SDS011;69574;45.328;9.598;2023-08-01T13:46:59;16.27;;;9.02;;
80272;SDS011;69574;45.328;9.598;2023-08-01T13:51:50;11.02;;;8.68;;
80272;SDS011;69574;45.328;9.598;2023-08-01T13:56:41;16.43;;;8.87;;
80272;SDS011;69574;45.328;9.598;2023-08-01T14:01:34;19.20;;;10.60;;
80272;SDS011;69574;45.328;9.598;2023-08-01T14:04:01;14.35;;;8.85;;
80272;SDS011;69574;45.328;9.598;2023-08-01T14:08:51;15.90;;;9.80;;
80272;SDS011;69574;45.328;9.598;2023-08-01T14:11:17;13.80;;;8.77;;
80272;SDS011;69574;45.328;9.598;2023-08-01T14:16:08;13.53;;;8.70;;
80272;SDS011;69574;45.328;9.598;2023-08-01T14:21:00;12.37;;;7.93;;
80272;SDS011;69574;45.328;9.598;2023-08-01T14:23:27;10.45;;;8.82;;
80272;SDS011;69574;45.328;9.598;2023-08-01T14:25:52;13.77;;;8.07;;
80272;SDS011;69574;45.328;9.598;2023-08-01T14:30:43;12.55;;;7.88;;
80272;SDS011;69574;45.328;9.598;2023-08-01T14:35:34;13.07;;;8.03;;
80272;SDS011;69574;45.328;9.598;2023-08-01T14:38:01;10.25;;;7.72;;
80272;SDS011;69574;45.328;9.598;2023-08-01T14:40:28;13.00;;;7.70;;
80272;SDS011;69574;45.328;9.598;2023-08-01T14:45:19;13.73;;;7.23;;
80272;SDS011;69574;45.328;9.598;2023-08-01T14:50:10;12.33;;;8.10;;
80272;SDS011;69574;45.328;9.598;2023-08-01T14:55:02;13.37;;;8.17;;
80272;SDS011;69574;45.328;9.598;2023-08-01T14:57:28;20.30;;;8.20;;
80272;SDS011;69574;45.328;9.598;2023-08-01T15:02:19;11.30;;;7.63;;
80272;SDS011;69574;45.328;9.598;2023-08-01T15:04:44;12.50;;;7.15;;
80272;SDS011;69574;45.328;9.598;2023-08-01T15:09:35;66.60;;;10.77;;
80272;SDS011;69574;45.328;9.598;2023-08-01T15:12:02;13.23;;;7.20;;
80272;SDS011;69574;45.328;9.598;2023-08-01T15:14:28;12.23;;;7.90;;
80272;SDS011;69574;45.328;9.598;2023-08-01T15:19:19;14.27;;;8.10;;
80272;SDS011;69574;45.328;9.598;2023-08-01T15:21:44;17.83;;;8.68;;
80272;SDS011;69574;45.328;9.598;2023-08-01T15:26:35;10.40;;;7.03;;
80272;SDS011;69574;45.328;9.598;2023-08-01T15:31:28;11.80;;;8.00;;
80272;SDS011;69574;45.328;9.598;2023-08-01T15:33:53;15.25;;;8.07;;
80272;SDS011;69574;45.328;9.598;2023-08-01T15:38:44;13.23;;;7.93;;